sensor_id;sensor_type;location;lat;lon;timestamp;P1;durP1;ratioP1;P2;durP2;ratioP2
70663;SDS011;58237;57.996;56.290;2022-10-16T00:00:14;7.13;;;2.83;;
70663;SDS011;58237;57.996;56.290;2022-10-16T00:02:40;5.45;;;2.10;;
70663;SDS011;58237;57.996;56.290;2022-10-16T00:05:05;5.75;;;2.60;;
70663;SDS011;58237;57.996;56.290;2022-10-16T00:07:31;5.20;;;2.10;;
70663;SDS011;58237;57.996;56.290;2022-10-16T00:09:56;4.15;;;1.67;;
70663;SDS011;58237;57.996;56.290;2022-10-16T00:12:21;5.25;;;2.25;;
70663;SDS011;58237;57.996;56.290;2022-10-16T00:14:47;4.38;;;1.85;;
70663;SDS011;58237;57.996;56.290;2022-10-16T00:17:12;6.00;;;2.30;;
70663;SDS011;58237;57.996;56.290;2022-10-16T00:19:38;7.18;;;3.15;;
70663;SDS011;58237;57.996;56.290;2022-10-16T00:22:03;5.35;;;2.70;;
70663;SDS011;58237;57.996;56.290;2022-10-16T00:24:47;8.20;;;3.58;;
70663;SDS011;58237;57.996;56.290;2022-10-16T00:27:12;6.25;;;2.92;;
70663;SDS011;58237;57.996;56.290;2022-10-16T00:29:37;7.38;;;3.42;;
70663;SDS011;58237;57.996;56.290;2022-10-16T00:32:03;5.93;;;2.47;;
70663;SDS011;58237;57.996;56.290;2022-10-16T00:34:28;8.75;;;3.10;;
70663;SDS011;58237;57.996;56.290;2022-10-16T00:36:53;6.05;;;2.70;;
70663;SDS011;58237;57.996;56.290;2022-10-16T00:39:19;8.10;;;2.83;;
70663;SDS011;58237;57.996;56.290;2022-10-16T00:41:44;6.57;;;2.67;;
70663;SDS011;58237;57.996;56.290;2022-10-16T00:49:19;5.70;;;2.17;;
70663;SDS011;58237;57.996;56.290;2022-10-16T00:51:46;5.20;;;2.28;;
70663;SDS011;58237;57.996;56.290;2022-10-16T00:54:13;4.38;;;1.80;;
70663;SDS011;58237;57.996;56.290;2022-10-16T00:56:39;8.25;;;3.25;;
70663;SDS011;58237;57.996;56.290;2022-10-16T00:59:06;5.43;;;2.35;;
70663;SDS011;58237;57.996;56.290;2022-10-16T01:01:32;6.40;;;2.67;;
70663;SDS011;58237;57.996;56.290;2022-10-16T01:03:58;6.88;;;3.22;;
70663;SDS011;58237;57.996;56.290;2022-10-16T01:06:31;6.75;;;3.08;;
70663;SDS011;58237;57.996;56.290;2022-10-16T01:10:01;5.68;;;2.30;;
70663;SDS011;58237;57.996;56.290;2022-10-16T01:11:57;6.60;;;2.85;;
70663;SDS011;58237;57.996;56.290;2022-10-16T01:24:45;7.07;;;2.47;;
70663;SDS011;58237;57.996;56.290;2022-10-16T01:32:06;6.88;;;2.75;;
70663;SDS011;58237;57.996;56.290;2022-10-16T01:34:33;6.68;;;2.65;;
70663;SDS011;58237;57.996;56.290;2022-10-16T01:37:02;7.45;;;3.45;;
70663;SDS011;58237;57.996;56.290;2022-10-16T01:39:30;6.40;;;2.80;;
70663;SDS011;58237;57.996;56.290;2022-10-16T01:42:02;6.97;;;2.83;;
70663;SDS011;58237;57.996;56.290;2022-10-16T01:44:29;5.38;;;2.38;;
70663;SDS011;58237;57.996;56.290;2022-10-16T01:46:56;6.22;;;2.42;;
70663;SDS011;58237;57.996;56.290;2022-10-16T01:49:23;4.60;;;1.83;;
70663;SDS011;58237;57.996;56.290;2022-10-16T01:51:49;5.57;;;2.22;;
70663;SDS011;58237;57.996;56.290;2022-10-16T01:54:17;8.13;;;2.63;;
70663;SDS011;58237;57.996;56.290;2022-10-16T01:56:43;6.22;;;2.15;;
70663;SDS011;58237;57.996;56.290;2022-10-16T01:59:11;7.93;;;2.97;;
70663;SDS011;58237;57.996;56.290;2022-10-16T02:01:38;7.75;;;2.70;;
70663;SDS011;58237;57.996;56.290;2022-10-16T02:04:09;6.55;;;2.25;;
70663;SDS011;58237;57.996;56.290;2022-10-16T02:06:35;7.38;;;2.28;;
70663;SDS011;58237;57.996;56.290;2022-10-16T02:09:00;5.43;;;2.28;;
70663;SDS011;58237;57.996;56.290;2022-10-16T02:11:25;6.20;;;2.40;;
70663;SDS011;58237;57.996;56.290;2022-10-16T02:13:53;6.18;;;2.42;;
70663;SDS011;58237;57.996;56.290;2022-10-16T02:16:20;5.63;;;1.98;;
70663;SDS011;58237;57.996;56.290;2022-10-16T02:18:45;5.53;;;2.28;;
70663;SDS011;58237;57.996;56.290;2022-10-16T02:21:16;6.43;;;2.83;;
70663;SDS011;58237;57.996;56.290;2022-10-16T02:26:12;5.90;;;2.30;;
70663;SDS011;58237;57.996;56.290;2022-10-16T02:28:40;5.55;;;2.10;;
70663;SDS011;58237;57.996;56.290;2022-10-16T02:31:08;5.43;;;2.15;;
70663;SDS011;58237;57.996;56.290;2022-10-16T02:33:35;7.53;;;2.53;;
70663;SDS011;58237;57.996;56.290;2022-10-16T02:36:02;4.50;;;1.95;;
70663;SDS011;58237;57.996;56.290;2022-10-16T02:38:27;5.20;;;2.28;;
70663;SDS011;58237;57.996;56.290;2022-10-16T02:40:54;6.05;;;2.75;;
70663;SDS011;58237;57.996;56.290;2022-10-16T02:43:19;6.47;;;3.00;;
70663;SDS011;58237;57.996;56.290;2022-10-16T02:45:45;7.63;;;2.97;;
70663;SDS011;58237;57.996;56.290;2022-10-16T02:48:10;7.45;;;2.83;;
70663;SDS011;58237;57.996;56.290;2022-10-16T02:50:35;8.35;;;2.80;;
70663;SDS011;58237;57.996;56.290;2022-10-16T02:53:01;6.47;;;3.00;;
70663;SDS011;58237;57.996;56.290;2022-10-16T02:55:26;6.65;;;2.63;;
70663;SDS011;58237;57.996;56.290;2022-10-16T02:57:52;5.97;;;2.50;;
70663;SDS011;58237;57.996;56.290;2022-10-16T03:00:17;8.13;;;3.28;;
70663;SDS011;58237;57.996;56.290;2022-10-16T03:02:43;7.15;;;2.85;;
70663;SDS011;58237;57.996;56.290;2022-10-16T03:05:09;6.93;;;3.00;;
70663;SDS011;58237;57.996;56.290;2022-10-16T03:07:34;6.72;;;2.08;;
70663;SDS011;58237;57.996;56.290;2022-10-16T03:09:59;5.28;;;2.00;;
70663;SDS011;58237;57.996;56.290;2022-10-16T03:12:28;5.15;;;2.30;;
70663;SDS011;58237;57.996;56.290;2022-10-16T03:14:55;7.05;;;3.17;;
70663;SDS011;58237;57.996;56.290;2022-10-16T03:17:20;6.53;;;3.20;;
70663;SDS011;58237;57.996;56.290;2022-10-16T03:19:45;6.05;;;2.53;;
70663;SDS011;58237;57.996;56.290;2022-10-16T03:22:11;6.22;;;2.80;;
70663;SDS011;58237;57.996;56.290;2022-10-16T03:24:36;5.30;;;2.17;;
70663;SDS011;58237;57.996;56.290;2022-10-16T03:27:01;8.93;;;2.60;;
70663;SDS011;58237;57.996;56.290;2022-10-16T03:29:27;4.40;;;1.83;;
70663;SDS011;58237;57.996;56.290;2022-10-16T03:31:52;6.93;;;2.90;;
70663;SDS011;58237;57.996;56.290;2022-10-16T03:34:17;7.57;;;2.70;;
70663;SDS011;58237;57.996;56.290;2022-10-16T03:36:43;5.10;;;2.33;;
70663;SDS011;58237;57.996;56.290;2022-10-16T03:39:08;7.80;;;2.60;;
70663;SDS011;58237;57.996;56.290;2022-10-16T03:41:33;7.32;;;2.80;;
70663;SDS011;58237;57.996;56.290;2022-10-16T03:43:59;7.38;;;3.40;;
70663;SDS011;58237;57.996;56.290;2022-10-16T03:46:24;6.63;;;3.03;;
70663;SDS011;58237;57.996;56.290;2022-10-16T03:48:49;6.72;;;2.90;;
70663;SDS011;58237;57.996;56.290;2022-10-16T03:51:15;7.72;;;3.15;;
70663;SDS011;58237;57.996;56.290;2022-10-16T03:53:40;6.40;;;2.30;;
70663;SDS011;58237;57.996;56.290;2022-10-16T03:56:05;5.13;;;2.30;;
70663;SDS011;58237;57.996;56.290;2022-10-16T03:58:31;7.50;;;2.72;;
70663;SDS011;58237;57.996;56.290;2022-10-16T04:00:56;8.27;;;3.63;;
70663;SDS011;58237;57.996;56.290;2022-10-16T04:03:21;8.13;;;3.97;;
70663;SDS011;58237;57.996;56.290;2022-10-16T04:05:47;7.03;;;3.15;;
70663;SDS011;58237;57.996;56.290;2022-10-16T04:08:12;11.32;;;3.03;;
70663;SDS011;58237;57.996;56.290;2022-10-16T04:10:37;8.40;;;3.90;;
70663;SDS011;58237;57.996;56.290;2022-10-16T04:13:03;7.63;;;3.47;;
70663;SDS011;58237;57.996;56.290;2022-10-16T04:15:28;7.22;;;3.35;;
70663;SDS011;58237;57.996;56.290;2022-10-16T04:17:54;10.38;;;3.30;;
70663;SDS011;58237;57.996;56.290;2022-10-16T04:20:19;6.75;;;2.80;;
70663;SDS011;58237;57.996;56.290;2022-10-16T04:22:44;5.47;;;2.10;;
70663;SDS011;58237;57.996;56.290;2022-10-16T04:25:10;7.68;;;2.72;;
70663;SDS011;58237;57.996;56.290;2022-10-16T04:27:35;6.63;;;3.03;;
70663;SDS011;58237;57.996;56.290;2022-10-16T04:30:00;7.28;;;3.25;;
70663;SDS011;58237;57.996;56.290;2022-10-16T04:32:26;7.95;;;3.30;;
70663;SDS011;58237;57.996;56.290;2022-10-16T04:34:52;5.80;;;2.55;;
70663;SDS011;58237;57.996;56.290;2022-10-16T04:37:17;5.80;;;2.45;;
70663;SDS011;58237;57.996;56.290;2022-10-16T04:39:42;6.63;;;2.72;;
70663;SDS011;58237;57.996;56.290;2022-10-16T04:42:08;6.95;;;2.67;;
70663;SDS011;58237;57.996;56.290;2022-10-16T04:44:33;6.95;;;2.80;;
70663;SDS011;58237;57.996;56.290;2022-10-16T04:46:58;5.53;;;2.25;;
70663;SDS011;58237;57.996;56.290;2022-10-16T04:49:24;6.47;;;2.30;;
70663;SDS011;58237;57.996;56.290;2022-10-16T04:51:49;6.57;;;2.50;;
70663;SDS011;58237;57.996;56.290;2022-10-16T04:54:14;7.50;;;2.58;;
70663;SDS011;58237;57.996;56.290;2022-10-16T04:56:40;8.75;;;2.72;;
70663;SDS011;58237;57.996;56.290;2022-10-16T04:59:05;10.55;;;4.47;;
70663;SDS011;58237;57.996;56.290;2022-10-16T05:01:30;7.65;;;3.13;;
70663;SDS011;58237;57.996;56.290;2022-10-16T05:03:56;7.20;;;2.83;;
70663;SDS011;58237;57.996;56.290;2022-10-16T05:06:21;5.90;;;2.40;;
70663;SDS011;58237;57.996;56.290;2022-10-16T05:08:46;9.00;;;2.70;;
70663;SDS011;58237;57.996;56.290;2022-10-16T05:11:12;7.45;;;3.08;;
70663;SDS011;58237;57.996;56.290;2022-10-16T05:13:37;6.72;;;2.80;;
70663;SDS011;58237;57.996;56.290;2022-10-16T05:16:02;5.03;;;2.00;;
70663;SDS011;58237;57.996;56.290;2022-10-16T05:18:28;5.28;;;2.85;;
70663;SDS011;58237;57.996;56.290;2022-10-16T05:20:53;8.95;;;2.50;;
70663;SDS011;58237;57.996;56.290;2022-10-16T05:23:22;8.35;;;2.97;;
70663;SDS011;58237;57.996;56.290;2022-10-16T05:25:54;11.20;;;3.08;;
70663;SDS011;58237;57.996;56.290;2022-10-16T05:28:20;8.07;;;3.17;;
70663;SDS011;58237;57.996;56.290;2022-10-16T05:30:45;8.73;;;3.40;;
70663;SDS011;58237;57.996;56.290;2022-10-16T05:33:10;7.72;;;3.47;;
70663;SDS011;58237;57.996;56.290;2022-10-16T05:35:36;8.93;;;3.35;;
70663;SDS011;58237;57.996;56.290;2022-10-16T05:38:01;13.20;;;4.30;;
70663;SDS011;58237;57.996;56.290;2022-10-16T05:40:26;8.98;;;3.40;;
70663;SDS011;58237;57.996;56.290;2022-10-16T05:42:54;9.43;;;3.30;;
70663;SDS011;58237;57.996;56.290;2022-10-16T05:45:20;8.57;;;3.10;;
70663;SDS011;58237;57.996;56.290;2022-10-16T05:47:45;8.70;;;3.00;;
70663;SDS011;58237;57.996;56.290;2022-10-16T05:50:10;8.07;;;3.22;;
70663;SDS011;58237;57.996;56.290;2022-10-16T05:52:36;7.57;;;3.03;;
70663;SDS011;58237;57.996;56.290;2022-10-16T05:55:01;7.75;;;2.55;;
70663;SDS011;58237;57.996;56.290;2022-10-16T05:57:28;8.18;;;3.17;;
70663;SDS011;58237;57.996;56.290;2022-10-16T05:59:53;12.27;;;2.80;;
70663;SDS011;58237;57.996;56.290;2022-10-16T06:02:19;8.07;;;2.92;;
70663;SDS011;58237;57.996;56.290;2022-10-16T06:04:44;9.38;;;2.90;;
70663;SDS011;58237;57.996;56.290;2022-10-16T06:07:09;8.80;;;3.20;;
70663;SDS011;58237;57.996;56.290;2022-10-16T06:09:35;8.02;;;2.80;;
70663;SDS011;58237;57.996;56.290;2022-10-16T06:12:00;5.68;;;2.38;;
70663;SDS011;58237;57.996;56.290;2022-10-16T06:14:26;6.10;;;2.92;;
70663;SDS011;58237;57.996;56.290;2022-10-16T06:16:51;14.82;;;3.80;;
70663;SDS011;58237;57.996;56.290;2022-10-16T06:19:16;11.18;;;4.43;;
70663;SDS011;58237;57.996;56.290;2022-10-16T06:21:42;10.35;;;4.78;;
70663;SDS011;58237;57.996;56.290;2022-10-16T06:24:07;6.60;;;2.72;;
70663;SDS011;58237;57.996;56.290;2022-10-16T06:26:33;7.88;;;2.70;;
70663;SDS011;58237;57.996;56.290;2022-10-16T06:28:59;5.35;;;2.00;;
70663;SDS011;58237;57.996;56.290;2022-10-16T06:31:25;6.20;;;2.10;;
70663;SDS011;58237;57.996;56.290;2022-10-16T06:33:50;6.65;;;2.78;;
70663;SDS011;58237;57.996;56.290;2022-10-16T06:36:16;5.13;;;2.03;;
70663;SDS011;58237;57.996;56.290;2022-10-16T06:38:42;10.15;;;4.53;;
70663;SDS011;58237;57.996;56.290;2022-10-16T06:41:08;12.20;;;3.97;;
70663;SDS011;58237;57.996;56.290;2022-10-16T06:43:34;9.45;;;3.75;;
70663;SDS011;58237;57.996;56.290;2022-10-16T06:45:59;11.90;;;4.28;;
70663;SDS011;58237;57.996;56.290;2022-10-16T06:48:25;10.30;;;4.45;;
70663;SDS011;58237;57.996;56.290;2022-10-16T06:53:22;7.05;;;2.92;;
70663;SDS011;58237;57.996;56.290;2022-10-16T06:55:47;8.20;;;2.38;;
70663;SDS011;58237;57.996;56.290;2022-10-16T06:58:12;10.30;;;3.65;;
70663;SDS011;58237;57.996;56.290;2022-10-16T07:00:38;8.65;;;2.75;;
70663;SDS011;58237;57.996;56.290;2022-10-16T07:03:03;6.65;;;2.38;;
70663;SDS011;58237;57.996;56.290;2022-10-16T07:05:28;5.93;;;2.67;;
70663;SDS011;58237;57.996;56.290;2022-10-16T07:07:54;9.45;;;3.10;;
70663;SDS011;58237;57.996;56.290;2022-10-16T07:10:19;8.05;;;3.53;;
70663;SDS011;58237;57.996;56.290;2022-10-16T07:12:44;5.13;;;2.42;;
70663;SDS011;58237;57.996;56.290;2022-10-16T07:15:10;6.97;;;2.10;;
70663;SDS011;58237;57.996;56.290;2022-10-16T07:17:35;6.78;;;2.70;;
70663;SDS011;58237;57.996;56.290;2022-10-16T07:20:01;6.97;;;2.40;;
70663;SDS011;58237;57.996;56.290;2022-10-16T07:22:27;6.72;;;2.10;;
70663;SDS011;58237;57.996;56.290;2022-10-16T07:24:53;5.10;;;1.70;;
70663;SDS011;58237;57.996;56.290;2022-10-16T07:27:18;6.28;;;1.90;;
70663;SDS011;58237;57.996;56.290;2022-10-16T07:29:44;5.38;;;1.52;;
70663;SDS011;58237;57.996;56.290;2022-10-16T07:32:09;3.05;;;1.40;;
70663;SDS011;58237;57.996;56.290;2022-10-16T07:34:34;4.20;;;1.20;;
70663;SDS011;58237;57.996;56.290;2022-10-16T07:37:00;2.97;;;1.30;;
70663;SDS011;58237;57.996;56.290;2022-10-16T07:39:25;2.88;;;1.33;;
70663;SDS011;58237;57.996;56.290;2022-10-16T07:41:50;3.72;;;1.42;;
70663;SDS011;58237;57.996;56.290;2022-10-16T07:44:15;6.60;;;1.80;;
70663;SDS011;58237;57.996;56.290;2022-10-16T07:46:41;6.72;;;1.88;;
70663;SDS011;58237;57.996;56.290;2022-10-16T07:49:06;5.43;;;1.88;;
70663;SDS011;58237;57.996;56.290;2022-10-16T07:51:31;6.72;;;2.55;;
70663;SDS011;58237;57.996;56.290;2022-10-16T07:53:57;7.75;;;2.20;;
70663;SDS011;58237;57.996;56.290;2022-10-16T07:56:22;5.78;;;2.47;;
70663;SDS011;58237;57.996;56.290;2022-10-16T07:58:48;7.32;;;2.10;;
70663;SDS011;58237;57.996;56.290;2022-10-16T08:01:16;4.75;;;1.83;;
70663;SDS011;58237;57.996;56.290;2022-10-16T08:03:42;4.35;;;1.70;;
70663;SDS011;58237;57.996;56.290;2022-10-16T08:06:08;4.55;;;1.70;;
70663;SDS011;58237;57.996;56.290;2022-10-16T08:08:33;5.65;;;1.90;;
70663;SDS011;58237;57.996;56.290;2022-10-16T08:10:59;5.22;;;1.55;;
70663;SDS011;58237;57.996;56.290;2022-10-16T08:13:24;5.53;;;1.85;;
70663;SDS011;58237;57.996;56.290;2022-10-16T08:15:49;3.40;;;1.40;;
70663;SDS011;58237;57.996;56.290;2022-10-16T08:18:15;5.75;;;2.15;;
70663;SDS011;58237;57.996;56.290;2022-10-16T08:20:41;6.40;;;2.20;;
70663;SDS011;58237;57.996;56.290;2022-10-16T08:23:07;4.97;;;1.75;;
70663;SDS011;58237;57.996;56.290;2022-10-16T08:25:34;5.20;;;1.20;;
70663;SDS011;58237;57.996;56.290;2022-10-16T08:27:59;3.72;;;1.42;;
70663;SDS011;58237;57.996;56.290;2022-10-16T08:30:25;6.40;;;1.45;;
70663;SDS011;58237;57.996;56.290;2022-10-16T08:32:50;6.70;;;2.33;;
70663;SDS011;58237;57.996;56.290;2022-10-16T08:35:16;4.88;;;1.83;;
70663;SDS011;58237;57.996;56.290;2022-10-16T08:37:42;7.95;;;2.80;;
70663;SDS011;58237;57.996;56.290;2022-10-16T08:40:15;6.13;;;2.00;;
70663;SDS011;58237;57.996;56.290;2022-10-16T08:42:53;4.30;;;1.60;;
70663;SDS011;58237;57.996;56.290;2022-10-16T08:48:00;5.90;;;2.42;;
70663;SDS011;58237;57.996;56.290;2022-10-16T08:50:31;5.45;;;2.67;;
70663;SDS011;58237;57.996;56.290;2022-10-16T08:52:57;5.97;;;2.50;;
70663;SDS011;58237;57.996;56.290;2022-10-16T08:55:41;8.35;;;2.38;;
70663;SDS011;58237;57.996;56.290;2022-10-16T08:58:11;5.53;;;1.90;;
70663;SDS011;58237;57.996;56.290;2022-10-16T09:00:36;3.67;;;1.50;;
70663;SDS011;58237;57.996;56.290;2022-10-16T09:05:36;4.95;;;1.98;;
70663;SDS011;58237;57.996;56.290;2022-10-16T09:08:09;5.93;;;2.53;;
70663;SDS011;58237;57.996;56.290;2022-10-16T09:15:39;5.97;;;2.83;;
70663;SDS011;58237;57.996;56.290;2022-10-16T09:20:49;5.18;;;1.70;;
70663;SDS011;58237;57.996;56.290;2022-10-16T09:23:26;7.57;;;1.55;;
70663;SDS011;58237;57.996;56.290;2022-10-16T09:25:56;4.75;;;2.20;;
70663;SDS011;58237;57.996;56.290;2022-10-16T09:28:23;4.22;;;1.85;;
70663;SDS011;58237;57.996;56.290;2022-10-16T09:30:48;5.50;;;2.47;;
70663;SDS011;58237;57.996;56.290;2022-10-16T09:33:14;4.90;;;1.55;;
70663;SDS011;58237;57.996;56.290;2022-10-16T09:35:40;4.32;;;1.55;;
70663;SDS011;58237;57.996;56.290;2022-10-16T09:38:20;5.30;;;1.50;;
70663;SDS011;58237;57.996;56.290;2022-10-16T09:40:46;3.85;;;1.60;;
70663;SDS011;58237;57.996;56.290;2022-10-16T09:48:20;6.93;;;2.20;;
70663;SDS011;58237;57.996;56.290;2022-10-16T09:50:56;6.78;;;2.80;;
70663;SDS011;58237;57.996;56.290;2022-10-16T09:53:22;6.65;;;2.33;;
70663;SDS011;58237;57.996;56.290;2022-10-16T09:55:48;7.75;;;2.75;;
70663;SDS011;58237;57.996;56.290;2022-10-16T09:58:14;6.18;;;2.50;;
70663;SDS011;58237;57.996;56.290;2022-10-16T10:00:39;6.78;;;2.40;;
70663;SDS011;58237;57.996;56.290;2022-10-16T10:03:09;7.50;;;3.08;;
70663;SDS011;58237;57.996;56.290;2022-10-16T10:05:35;7.15;;;2.80;;
70663;SDS011;58237;57.996;56.290;2022-10-16T10:08:01;5.75;;;2.03;;
70663;SDS011;58237;57.996;56.290;2022-10-16T10:10:27;6.72;;;2.60;;
70663;SDS011;58237;57.996;56.290;2022-10-16T10:12:54;7.43;;;2.50;;
70663;SDS011;58237;57.996;56.290;2022-10-16T10:15:19;6.03;;;2.30;;
70663;SDS011;58237;57.996;56.290;2022-10-16T10:17:54;6.30;;;2.78;;
70663;SDS011;58237;57.996;56.290;2022-10-16T10:22:48;5.22;;;2.22;;
70663;SDS011;58237;57.996;56.290;2022-10-16T10:30:27;7.30;;;2.30;;
70663;SDS011;58237;57.996;56.290;2022-10-16T10:33:08;7.25;;;2.40;;
70663;SDS011;58237;57.996;56.290;2022-10-16T10:35:45;9.20;;;3.17;;
70663;SDS011;58237;57.996;56.290;2022-10-16T10:45:52;6.20;;;2.08;;
70663;SDS011;58237;57.996;56.290;2022-10-16T10:50:43;6.70;;;2.22;;
70663;SDS011;58237;57.996;56.290;2022-10-16T11:04:18;6.20;;;2.17;;
70663;SDS011;58237;57.996;56.290;2022-10-16T11:06:46;5.45;;;2.10;;
70663;SDS011;58237;57.996;56.290;2022-10-16T11:11:40;5.88;;;2.08;;
70663;SDS011;58237;57.996;56.290;2022-10-16T11:14:12;5.65;;;1.92;;
70663;SDS011;58237;57.996;56.290;2022-10-16T11:16:43;4.65;;;2.20;;
70663;SDS011;58237;57.996;56.290;2022-10-16T11:21:39;8.05;;;2.08;;
70663;SDS011;58237;57.996;56.290;2022-10-16T11:24:09;5.93;;;1.58;;
70663;SDS011;58237;57.996;56.290;2022-10-16T11:26:40;3.60;;;1.70;;
70663;SDS011;58237;57.996;56.290;2022-10-16T11:29:10;4.53;;;1.50;;
70663;SDS011;58237;57.996;56.290;2022-10-16T11:31:42;10.88;;;3.20;;
70663;SDS011;58237;57.996;56.290;2022-10-16T11:36:49;7.07;;;2.38;;
70663;SDS011;58237;57.996;56.290;2022-10-16T11:39:26;6.13;;;2.35;;
70663;SDS011;58237;57.996;56.290;2022-10-16T11:44:42;8.05;;;2.72;;
70663;SDS011;58237;57.996;56.290;2022-10-16T11:49:34;7.43;;;2.78;;
70663;SDS011;58237;57.996;56.290;2022-10-16T11:55:18;8.77;;;2.72;;
70663;SDS011;58237;57.996;56.290;2022-10-16T11:57:49;6.20;;;2.20;;
70663;SDS011;58237;57.996;56.290;2022-10-16T12:00:20;4.97;;;2.63;;
70663;SDS011;58237;57.996;56.290;2022-10-16T12:02:55;6.05;;;2.05;;
70663;SDS011;58237;57.996;56.290;2022-10-16T12:08:13;5.28;;;1.85;;
70663;SDS011;58237;57.996;56.290;2022-10-16T12:10:40;5.82;;;2.50;;
70663;SDS011;58237;57.996;56.290;2022-10-16T12:15:50;6.35;;;2.00;;
70663;SDS011;58237;57.996;56.290;2022-10-16T12:18:22;5.55;;;1.88;;
70663;SDS011;58237;57.996;56.290;2022-10-16T12:20:54;6.07;;;2.00;;
70663;SDS011;58237;57.996;56.290;2022-10-16T12:23:20;6.45;;;2.40;;
70663;SDS011;58237;57.996;56.290;2022-10-16T12:25:53;7.30;;;2.00;;
70663;SDS011;58237;57.996;56.290;2022-10-16T12:28:19;5.13;;;1.75;;
70663;SDS011;58237;57.996;56.290;2022-10-16T12:30:54;3.40;;;1.42;;
70663;SDS011;58237;57.996;56.290;2022-10-16T12:33:21;3.67;;;1.40;;
70663;SDS011;58237;57.996;56.290;2022-10-16T12:35:47;5.57;;;1.75;;
70663;SDS011;58237;57.996;56.290;2022-10-16T12:40:41;8.80;;;2.88;;
70663;SDS011;58237;57.996;56.290;2022-10-16T12:43:23;10.50;;;3.20;;
70663;SDS011;58237;57.996;56.290;2022-10-16T12:45:58;7.15;;;2.20;;
70663;SDS011;58237;57.996;56.290;2022-10-16T12:48:24;6.80;;;2.50;;
70663;SDS011;58237;57.996;56.290;2022-10-16T12:50:49;6.47;;;2.30;;
70663;SDS011;58237;57.996;56.290;2022-10-16T12:53:21;5.18;;;1.88;;
70663;SDS011;58237;57.996;56.290;2022-10-16T13:01:17;6.40;;;2.85;;
70663;SDS011;58237;57.996;56.290;2022-10-16T13:06:45;6.50;;;2.15;;
70663;SDS011;58237;57.996;56.290;2022-10-16T13:24:40;7.85;;;2.55;;
70663;SDS011;58237;57.996;56.290;2022-10-16T13:27:08;7.38;;;2.47;;
70663;SDS011;58237;57.996;56.290;2022-10-16T13:29:37;5.07;;;2.00;;
70663;SDS011;58237;57.996;56.290;2022-10-16T13:32:06;7.13;;;2.55;;
70663;SDS011;58237;57.996;56.290;2022-10-16T13:34:43;7.15;;;2.40;;
70663;SDS011;58237;57.996;56.290;2022-10-16T13:37:16;7.38;;;2.70;;
70663;SDS011;58237;57.996;56.290;2022-10-16T13:39:41;6.70;;;2.85;;
70663;SDS011;58237;57.996;56.290;2022-10-16T13:42:10;6.53;;;2.30;;
70663;SDS011;58237;57.996;56.290;2022-10-16T13:44:43;5.90;;;2.50;;
70663;SDS011;58237;57.996;56.290;2022-10-16T13:47:16;8.63;;;2.72;;
70663;SDS011;58237;57.996;56.290;2022-10-16T13:49:42;5.93;;;2.30;;
70663;SDS011;58237;57.996;56.290;2022-10-16T13:52:20;7.82;;;2.70;;
70663;SDS011;58237;57.996;56.290;2022-10-16T13:54:46;8.73;;;2.25;;
70663;SDS011;58237;57.996;56.290;2022-10-16T13:57:15;6.90;;;2.40;;
70663;SDS011;58237;57.996;56.290;2022-10-16T13:59:41;7.13;;;2.60;;
70663;SDS011;58237;57.996;56.290;2022-10-16T14:04:43;10.13;;;3.30;;
70663;SDS011;58237;57.996;56.290;2022-10-16T14:07:18;5.53;;;2.45;;
70663;SDS011;58237;57.996;56.290;2022-10-16T14:09:47;7.82;;;2.63;;
70663;SDS011;58237;57.996;56.290;2022-10-16T14:12:12;8.00;;;3.00;;
70663;SDS011;58237;57.996;56.290;2022-10-16T14:14:41;7.60;;;2.58;;
70663;SDS011;58237;57.996;56.290;2022-10-16T14:17:24;6.00;;;2.70;;
70663;SDS011;58237;57.996;56.290;2022-10-16T14:19:51;7.18;;;3.10;;
70663;SDS011;58237;57.996;56.290;2022-10-16T14:24:55;5.63;;;2.30;;
70663;SDS011;58237;57.996;56.290;2022-10-16T14:27:31;6.75;;;2.25;;
70663;SDS011;58237;57.996;56.290;2022-10-16T14:32:39;7.82;;;2.88;;
70663;SDS011;58237;57.996;56.290;2022-10-16T14:35:11;9.98;;;3.20;;
70663;SDS011;58237;57.996;56.290;2022-10-16T14:37:46;7.75;;;2.72;;
70663;SDS011;58237;57.996;56.290;2022-10-16T14:40:15;8.50;;;2.50;;
70663;SDS011;58237;57.996;56.290;2022-10-16T14:42:42;5.80;;;2.33;;
70663;SDS011;58237;57.996;56.290;2022-10-16T14:45:08;7.25;;;2.47;;
70663;SDS011;58237;57.996;56.290;2022-10-16T14:47:34;8.88;;;3.55;;
70663;SDS011;58237;57.996;56.290;2022-10-16T14:50:01;9.77;;;3.33;;
70663;SDS011;58237;57.996;56.290;2022-10-16T14:52:28;11.07;;;3.72;;
70663;SDS011;58237;57.996;56.290;2022-10-16T14:54:53;10.18;;;4.38;;
70663;SDS011;58237;57.996;56.290;2022-10-16T14:57:23;10.23;;;3.72;;
70663;SDS011;58237;57.996;56.290;2022-10-16T14:59:49;11.15;;;3.38;;
70663;SDS011;58237;57.996;56.290;2022-10-16T15:02:19;10.15;;;4.32;;
70663;SDS011;58237;57.996;56.290;2022-10-16T15:04:45;7.25;;;3.40;;
70663;SDS011;58237;57.996;56.290;2022-10-16T15:07:11;10.00;;;3.40;;
70663;SDS011;58237;57.996;56.290;2022-10-16T15:09:36;8.43;;;4.13;;
70663;SDS011;58237;57.996;56.290;2022-10-16T15:12:01;7.82;;;3.03;;
70663;SDS011;58237;57.996;56.290;2022-10-16T15:14:27;9.88;;;4.30;;
70663;SDS011;58237;57.996;56.290;2022-10-16T15:16:52;10.15;;;4.20;;
70663;SDS011;58237;57.996;56.290;2022-10-16T15:19:17;10.40;;;3.35;;
70663;SDS011;58237;57.996;56.290;2022-10-16T15:21:43;11.35;;;3.80;;
70663;SDS011;58237;57.996;56.290;2022-10-16T15:24:09;8.40;;;3.22;;
70663;SDS011;58237;57.996;56.290;2022-10-16T15:26:36;7.28;;;3.28;;
70663;SDS011;58237;57.996;56.290;2022-10-16T15:29:01;12.55;;;4.32;;
70663;SDS011;58237;57.996;56.290;2022-10-16T15:31:27;8.13;;;3.13;;
70663;SDS011;58237;57.996;56.290;2022-10-16T15:33:52;10.43;;;3.75;;
70663;SDS011;58237;57.996;56.290;2022-10-16T15:36:23;8.82;;;4.00;;
70663;SDS011;58237;57.996;56.290;2022-10-16T15:38:49;8.40;;;3.55;;
70663;SDS011;58237;57.996;56.290;2022-10-16T15:41:14;8.52;;;3.30;;
70663;SDS011;58237;57.996;56.290;2022-10-16T15:43:39;9.95;;;3.38;;
70663;SDS011;58237;57.996;56.290;2022-10-16T15:46:06;11.25;;;3.30;;
70663;SDS011;58237;57.996;56.290;2022-10-16T15:48:32;9.60;;;3.67;;
70663;SDS011;58237;57.996;56.290;2022-10-16T15:50:58;10.43;;;4.07;;
70663;SDS011;58237;57.996;56.290;2022-10-16T15:53:23;12.40;;;4.25;;
70663;SDS011;58237;57.996;56.290;2022-10-16T15:55:48;9.50;;;4.63;;
70663;SDS011;58237;57.996;56.290;2022-10-16T15:58:14;9.35;;;4.38;;
70663;SDS011;58237;57.996;56.290;2022-10-16T16:00:39;8.00;;;3.60;;
70663;SDS011;58237;57.996;56.290;2022-10-16T16:03:04;11.40;;;3.78;;
70663;SDS011;58237;57.996;56.290;2022-10-16T16:05:30;9.20;;;3.63;;
70663;SDS011;58237;57.996;56.290;2022-10-16T16:07:56;6.07;;;2.92;;
70663;SDS011;58237;57.996;56.290;2022-10-16T16:10:21;8.10;;;3.42;;
70663;SDS011;58237;57.996;56.290;2022-10-16T16:12:47;8.40;;;4.25;;
70663;SDS011;58237;57.996;56.290;2022-10-16T16:15:12;11.02;;;3.72;;
70663;SDS011;58237;57.996;56.290;2022-10-16T16:17:38;12.48;;;4.10;;
70663;SDS011;58237;57.996;56.290;2022-10-16T16:20:04;9.25;;;4.05;;
70663;SDS011;58237;57.996;56.290;2022-10-16T16:22:29;9.88;;;3.08;;
70663;SDS011;58237;57.996;56.290;2022-10-16T16:24:55;10.23;;;4.47;;
70663;SDS011;58237;57.996;56.290;2022-10-16T16:27:20;12.00;;;4.47;;
70663;SDS011;58237;57.996;56.290;2022-10-16T16:29:46;8.00;;;3.63;;
70663;SDS011;58237;57.996;56.290;2022-10-16T16:32:11;9.10;;;3.47;;
70663;SDS011;58237;57.996;56.290;2022-10-16T16:34:37;8.85;;;3.20;;
70663;SDS011;58237;57.996;56.290;2022-10-16T16:37:02;10.13;;;4.18;;
70663;SDS011;58237;57.996;56.290;2022-10-16T16:39:27;10.00;;;4.50;;